sensor_id;sensor_type;location;lat;lon;timestamp;P1;durP1;ratioP1;P2;durP2;ratioP2
20411;SDS011;10365;52.578;8.138;2023-02-28T00:00:37;14.02;;;6.88;;
20411;SDS011;10365;52.578;8.138;2023-02-28T00:03:02;16.80;;;6.68;;
20411;SDS011;10365;52.578;8.138;2023-02-28T00:05:28;13.98;;;6.53;;
20411;SDS011;10365;52.578;8.138;2023-02-28T00:07:53;15.02;;;6.43;;
20411;SDS011;10365;52.578;8.138;2023-02-28T00:10:20;12.80;;;6.00;;
20411;SDS011;10365;52.578;8.138;2023-02-28T00:12:56;14.40;;;6.57;;
20411;SDS011;10365;52.578;8.138;2023-02-28T00:15:24;13.73;;;6.40;;
20411;SDS011;10365;52.578;8.138;2023-02-28T00:17:50;13.32;;;5.85;;
20411;SDS011;10365;52.578;8.138;2023-02-28T00:20:15;12.82;;;5.53;;
20411;SDS011;10365;52.578;8.138;2023-02-28T00:22:42;13.50;;;6.43;;
20411;SDS011;10365;52.578;8.138;2023-02-28T00:25:08;13.70;;;6.32;;
20411;SDS011;10365;52.578;8.138;2023-02-28T00:27:34;14.52;;;6.15;;
20411;SDS011;10365;52.578;8.138;2023-02-28T00:30:03;17.17;;;7.35;;
20411;SDS011;10365;52.578;8.138;2023-02-28T00:32:29;15.18;;;6.95;;
20411;SDS011;10365;52.578;8.138;2023-02-28T00:34:54;19.15;;;6.82;;
20411;SDS011;10365;52.578;8.138;2023-02-28T00:37:20;12.73;;;6.50;;
20411;SDS011;10365;52.578;8.138;2023-02-28T00:39:45;12.60;;;6.00;;
20411;SDS011;10365;52.578;8.138;2023-02-28T00:42:11;14.75;;;6.30;;
20411;SDS011;10365;52.578;8.138;2023-02-28T00:44:36;12.88;;;6.18;;
20411;SDS011;10365;52.578;8.138;2023-02-28T00:47:02;18.63;;;6.72;;
20411;SDS011;10365;52.578;8.138;2023-02-28T00:49:27;12.07;;;6.25;;
20411;SDS011;10365;52.578;8.138;2023-02-28T00:51:53;12.30;;;5.53;;
20411;SDS011;10365;52.578;8.138;2023-02-28T00:54:19;10.95;;;6.00;;
20411;SDS011;10365;52.578;8.138;2023-02-28T00:56:46;11.93;;;4.95;;
20411;SDS011;10365;52.578;8.138;2023-02-28T00:59:12;10.02;;;4.18;;
20411;SDS011;10365;52.578;8.138;2023-02-28T01:01:38;6.93;;;4.13;;
20411;SDS011;10365;52.578;8.138;2023-02-28T01:04:03;9.68;;;4.05;;
20411;SDS011;10365;52.578;8.138;2023-02-28T01:06:28;8.52;;;3.70;;
20411;SDS011;10365;52.578;8.138;2023-02-28T01:08:54;11.82;;;4.50;;
20411;SDS011;10365;52.578;8.138;2023-02-28T01:11:19;11.50;;;4.47;;
20411;SDS011;10365;52.578;8.138;2023-02-28T01:13:45;8.38;;;4.70;;
20411;SDS011;10365;52.578;8.138;2023-02-28T01:16:11;14.63;;;4.47;;
20411;SDS011;10365;52.578;8.138;2023-02-28T01:18:37;9.50;;;3.92;;
20411;SDS011;10365;52.578;8.138;2023-02-28T01:21:03;11.40;;;3.88;;
20411;SDS011;10365;52.578;8.138;2023-02-28T01:23:28;7.85;;;3.90;;
20411;SDS011;10365;52.578;8.138;2023-02-28T01:25:54;6.20;;;3.67;;
20411;SDS011;10365;52.578;8.138;2023-02-28T01:28:20;10.38;;;4.68;;
20411;SDS011;10365;52.578;8.138;2023-02-28T01:30:49;7.45;;;3.88;;
20411;SDS011;10365;52.578;8.138;2023-02-28T01:33:14;8.80;;;3.78;;
20411;SDS011;10365;52.578;8.138;2023-02-28T01:35:39;11.20;;;3.42;;
20411;SDS011;10365;52.578;8.138;2023-02-28T01:38:05;9.00;;;3.55;;
20411;SDS011;10365;52.578;8.138;2023-02-28T01:40:30;10.05;;;3.72;;
20411;SDS011;10365;52.578;8.138;2023-02-28T01:42:55;5.90;;;3.28;;
20411;SDS011;10365;52.578;8.138;2023-02-28T01:45:22;7.57;;;3.40;;
20411;SDS011;10365;52.578;8.138;2023-02-28T01:47:50;8.48;;;3.17;;
20411;SDS011;10365;52.578;8.138;2023-02-28T01:50:21;6.63;;;3.53;;
20411;SDS011;10365;52.578;8.138;2023-02-28T01:52:48;8.88;;;3.58;;
20411;SDS011;10365;52.578;8.138;2023-02-28T01:55:13;9.20;;;3.65;;
20411;SDS011;10365;52.578;8.138;2023-02-28T01:57:44;8.65;;;3.70;;
20411;SDS011;10365;52.578;8.138;2023-02-28T02:00:12;5.28;;;3.38;;
20411;SDS011;10365;52.578;8.138;2023-02-28T02:02:39;8.40;;;4.40;;
20411;SDS011;10365;52.578;8.138;2023-02-28T02:05:09;6.70;;;4.03;;
20411;SDS011;10365;52.578;8.138;2023-02-28T02:07:36;7.65;;;4.25;;
20411;SDS011;10365;52.578;8.138;2023-02-28T02:10:04;6.65;;;4.28;;
20411;SDS011;10365;52.578;8.138;2023-02-28T02:15:22;8.27;;;4.63;;
20411;SDS011;10365;52.578;8.138;2023-02-28T02:17:50;9.13;;;4.25;;
20411;SDS011;10365;52.578;8.138;2023-02-28T02:25:50;8.30;;;3.50;;
20411;SDS011;10365;52.578;8.138;2023-02-28T02:38:40;10.35;;;5.45;;
20411;SDS011;10365;52.578;8.138;2023-02-28T02:41:12;12.07;;;5.55;;
20411;SDS011;10365;52.578;8.138;2023-02-28T02:43:40;15.40;;;7.22;;
20411;SDS011;10365;52.578;8.138;2023-02-28T02:46:17;13.85;;;6.55;;
20411;SDS011;10365;52.578;8.138;2023-02-28T02:48:44;19.17;;;6.93;;
20411;SDS011;10365;52.578;8.138;2023-02-28T02:51:13;13.80;;;6.30;;
20411;SDS011;10365;52.578;8.138;2023-02-28T02:53:46;16.48;;;7.32;;
20411;SDS011;10365;52.578;8.138;2023-02-28T02:56:15;16.35;;;7.05;;
20411;SDS011;10365;52.578;8.138;2023-02-28T02:58:42;13.25;;;6.00;;
20411;SDS011;10365;52.578;8.138;2023-02-28T03:01:12;11.95;;;5.80;;
20411;SDS011;10365;52.578;8.138;2023-02-28T03:03:39;11.68;;;4.70;;
20411;SDS011;10365;52.578;8.138;2023-02-28T03:06:05;7.45;;;5.03;;
20411;SDS011;10365;52.578;8.138;2023-02-28T03:08:34;10.68;;;5.15;;
20411;SDS011;10365;52.578;8.138;2023-02-28T03:11:01;8.45;;;4.55;;
20411;SDS011;10365;52.578;8.138;2023-02-28T03:18:40;9.60;;;5.07;;
20411;SDS011;10365;52.578;8.138;2023-02-28T03:21:19;12.65;;;5.53;;
20411;SDS011;10365;52.578;8.138;2023-02-28T03:23:53;12.57;;;4.75;;
20411;SDS011;10365;52.578;8.138;2023-02-28T03:26:22;16.92;;;4.70;;
20411;SDS011;10365;52.578;8.138;2023-02-28T03:33:46;6.97;;;3.80;;
20411;SDS011;10365;52.578;8.138;2023-02-28T03:36:20;12.35;;;4.05;;
20411;SDS011;10365;52.578;8.138;2023-02-28T03:38:51;8.57;;;4.22;;
20411;SDS011;10365;52.578;8.138;2023-02-28T03:41:20;9.27;;;3.70;;
20411;SDS011;10365;52.578;8.138;2023-02-28T03:43:55;11.63;;;4.47;;
20411;SDS011;10365;52.578;8.138;2023-02-28T03:46:21;7.43;;;3.75;;
20411;SDS011;10365;52.578;8.138;2023-02-28T03:48:51;6.43;;;3.80;;
20411;SDS011;10365;52.578;8.138;2023-02-28T03:51:18;9.38;;;4.22;;
20411;SDS011;10365;52.578;8.138;2023-02-28T03:53:57;8.60;;;4.25;;
20411;SDS011;10365;52.578;8.138;2023-02-28T03:58:51;8.50;;;3.78;;
20411;SDS011;10365;52.578;8.138;2023-02-28T04:01:26;10.57;;;4.55;;
20411;SDS011;10365;52.578;8.138;2023-02-28T04:03:53;15.20;;;3.60;;
20411;SDS011;10365;52.578;8.138;2023-02-28T04:06:19;8.80;;;3.33;;
20411;SDS011;10365;52.578;8.138;2023-02-28T04:08:45;5.72;;;3.38;;
20411;SDS011;10365;52.578;8.138;2023-02-28T04:13:41;8.77;;;3.53;;
20411;SDS011;10365;52.578;8.138;2023-02-28T04:16:08;10.15;;;3.08;;
20411;SDS011;10365;52.578;8.138;2023-02-28T04:18:37;6.75;;;2.85;;
20411;SDS011;10365;52.578;8.138;2023-02-28T04:21:03;6.88;;;2.90;;
20411;SDS011;10365;52.578;8.138;2023-02-28T04:23:28;6.53;;;3.28;;
20411;SDS011;10365;52.578;8.138;2023-02-28T04:25:55;9.95;;;2.67;;
20411;SDS011;10365;52.578;8.138;2023-02-28T04:28:20;7.88;;;3.22;;
20411;SDS011;10365;52.578;8.138;2023-02-28T04:30:46;4.85;;;2.80;;
20411;SDS011;10365;52.578;8.138;2023-02-28T04:33:12;6.13;;;2.67;;
20411;SDS011;10365;52.578;8.138;2023-02-28T04:35:37;6.45;;;2.88;;
20411;SDS011;10365;52.578;8.138;2023-02-28T04:38:02;7.97;;;2.92;;
20411;SDS011;10365;52.578;8.138;2023-02-28T04:40:28;6.53;;;3.13;;
20411;SDS011;10365;52.578;8.138;2023-02-28T04:42:53;8.52;;;3.60;;
20411;SDS011;10365;52.578;8.138;2023-02-28T04:45:18;5.65;;;2.85;;
20411;SDS011;10365;52.578;8.138;2023-02-28T04:47:43;4.45;;;2.60;;
20411;SDS011;10365;52.578;8.138;2023-02-28T04:50:09;5.50;;;3.08;;
20411;SDS011;10365;52.578;8.138;2023-02-28T04:52:34;13.52;;;3.05;;
20411;SDS011;10365;52.578;8.138;2023-02-28T04:55:00;7.38;;;3.28;;
20411;SDS011;10365;52.578;8.138;2023-02-28T04:57:25;9.05;;;3.25;;
20411;SDS011;10365;52.578;8.138;2023-02-28T04:59:51;8.60;;;3.58;;
20411;SDS011;10365;52.578;8.138;2023-02-28T05:02:17;7.13;;;3.38;;
20411;SDS011;10365;52.578;8.138;2023-02-28T05:04:42;6.45;;;3.83;;
20411;SDS011;10365;52.578;8.138;2023-02-28T05:07:07;11.32;;;3.40;;
20411;SDS011;10365;52.578;8.138;2023-02-28T05:09:32;6.57;;;3.65;;
20411;SDS011;10365;52.578;8.138;2023-02-28T05:11:58;8.10;;;3.72;;
20411;SDS011;10365;52.578;8.138;2023-02-28T05:14:23;8.32;;;4.07;;
20411;SDS011;10365;52.578;8.138;2023-02-28T05:16:49;9.40;;;4.57;;
20411;SDS011;10365;52.578;8.138;2023-02-28T05:19:14;7.78;;;4.00;;
20411;SDS011;10365;52.578;8.138;2023-02-28T05:21:40;8.40;;;5.13;;
20411;SDS011;10365;52.578;8.138;2023-02-28T05:24:07;9.07;;;4.55;;
20411;SDS011;10365;52.578;8.138;2023-02-28T05:26:34;6.75;;;4.53;;
20411;SDS011;10365;52.578;8.138;2023-02-28T05:29:00;8.77;;;4.47;;
20411;SDS011;10365;52.578;8.138;2023-02-28T05:31:42;8.80;;;5.15;;
20411;SDS011;10365;52.578;8.138;2023-02-28T05:34:17;11.55;;;5.30;;
20411;SDS011;10365;52.578;8.138;2023-02-28T05:37:02;7.75;;;4.88;;
20411;SDS011;10365;52.578;8.138;2023-02-28T05:39:27;9.27;;;5.47;;
20411;SDS011;10365;52.578;8.138;2023-02-28T05:41:53;10.43;;;5.47;;
20411;SDS011;10365;52.578;8.138;2023-02-28T05:44:18;10.70;;;5.70;;
20411;SDS011;10365;52.578;8.138;2023-02-28T05:46:43;8.05;;;5.22;;
20411;SDS011;10365;52.578;8.138;2023-02-28T05:49:09;11.30;;;5.90;;
20411;SDS011;10365;52.578;8.138;2023-02-28T05:51:37;8.75;;;5.43;;
20411;SDS011;10365;52.578;8.138;2023-02-28T05:54:05;10.18;;;5.55;;
20411;SDS011;10365;52.578;8.138;2023-02-28T05:56:30;8.95;;;5.60;;
20411;SDS011;10365;52.578;8.138;2023-02-28T05:58:55;10.95;;;6.10;;
20411;SDS011;10365;52.578;8.138;2023-02-28T06:03:46;11.85;;;6.15;;
20411;SDS011;10365;52.578;8.138;2023-02-28T06:06:11;7.68;;;5.70;;
20411;SDS011;10365;52.578;8.138;2023-02-28T06:08:37;12.02;;;7.22;;
20411;SDS011;10365;52.578;8.138;2023-02-28T06:11:03;19.48;;;6.35;;
20411;SDS011;10365;52.578;8.138;2023-02-28T06:13:28;14.45;;;6.25;;
20411;SDS011;10365;52.578;8.138;2023-02-28T06:15:54;8.88;;;5.95;;
20411;SDS011;10365;52.578;8.138;2023-02-28T06:18:19;9.43;;;5.70;;
20411;SDS011;10365;52.578;8.138;2023-02-28T06:20:44;9.85;;;5.97;;
20411;SDS011;10365;52.578;8.138;2023-02-28T06:23:10;9.23;;;5.88;;
20411;SDS011;10365;52.578;8.138;2023-02-28T06:25:35;12.85;;;6.15;;
20411;SDS011;10365;52.578;8.138;2023-02-28T06:28:00;11.48;;;6.30;;
20411;SDS011;10365;52.578;8.138;2023-02-28T06:30:26;10.00;;;5.70;;
20411;SDS011;10365;52.578;8.138;2023-02-28T06:32:55;10.95;;;6.00;;
20411;SDS011;10365;52.578;8.138;2023-02-28T06:35:20;9.50;;;5.18;;
20411;SDS011;10365;52.578;8.138;2023-02-28T06:37:46;7.90;;;5.15;;
20411;SDS011;10365;52.578;8.138;2023-02-28T06:40:12;13.98;;;5.70;;
20411;SDS011;10365;52.578;8.138;2023-02-28T06:42:38;11.48;;;6.90;;
20411;SDS011;10365;52.578;8.138;2023-02-28T06:45:03;11.65;;;6.05;;
20411;SDS011;10365;52.578;8.138;2023-02-28T06:47:34;13.27;;;6.38;;
20411;SDS011;10365;52.578;8.138;2023-02-28T06:49:59;14.85;;;6.97;;
20411;SDS011;10365;52.578;8.138;2023-02-28T06:52:26;13.73;;;6.47;;
20411;SDS011;10365;52.578;8.138;2023-02-28T06:54:52;10.05;;;5.82;;
20411;SDS011;10365;52.578;8.138;2023-02-28T06:57:34;19.55;;;7.22;;
20411;SDS011;10365;52.578;8.138;2023-02-28T07:00:00;21.10;;;8.75;;
20411;SDS011;10365;52.578;8.138;2023-02-28T07:02:26;14.90;;;9.25;;
20411;SDS011;10365;52.578;8.138;2023-02-28T07:04:51;18.98;;;10.02;;
20411;SDS011;10365;52.578;8.138;2023-02-28T07:07:17;19.98;;;9.15;;
20411;SDS011;10365;52.578;8.138;2023-02-28T07:09:42;21.60;;;11.27;;
20411;SDS011;10365;52.578;8.138;2023-02-28T07:12:07;24.70;;;12.63;;
20411;SDS011;10365;52.578;8.138;2023-02-28T07:14:33;25.08;;;12.75;;
20411;SDS011;10365;52.578;8.138;2023-02-28T07:16:58;19.52;;;10.85;;
20411;SDS011;10365;52.578;8.138;2023-02-28T07:19:23;22.27;;;11.73;;
20411;SDS011;10365;52.578;8.138;2023-02-28T07:21:49;19.08;;;10.45;;
20411;SDS011;10365;52.578;8.138;2023-02-28T07:24:14;18.60;;;10.57;;
20411;SDS011;10365;52.578;8.138;2023-02-28T07:26:41;17.52;;;9.90;;
20411;SDS011;10365;52.578;8.138;2023-02-28T07:29:09;17.77;;;10.38;;
20411;SDS011;10365;52.578;8.138;2023-02-28T07:31:35;18.85;;;11.32;;
20411;SDS011;10365;52.578;8.138;2023-02-28T07:34:00;20.50;;;12.68;;
20411;SDS011;10365;52.578;8.138;2023-02-28T07:36:29;19.30;;;12.27;;
20411;SDS011;10365;52.578;8.138;2023-02-28T07:38:54;18.40;;;11.32;;
20411;SDS011;10365;52.578;8.138;2023-02-28T07:41:20;17.02;;;9.75;;
20411;SDS011;10365;52.578;8.138;2023-02-28T07:43:46;14.95;;;9.93;;
20411;SDS011;10365;52.578;8.138;2023-02-28T07:46:13;17.77;;;10.85;;
20411;SDS011;10365;52.578;8.138;2023-02-28T07:48:40;16.98;;;10.65;;
20411;SDS011;10365;52.578;8.138;2023-02-28T07:51:05;23.73;;;10.90;;
20411;SDS011;10365;52.578;8.138;2023-02-28T07:53:31;17.83;;;11.45;;
20411;SDS011;10365;52.578;8.138;2023-02-28T07:55:57;26.23;;;13.00;;
20411;SDS011;10365;52.578;8.138;2023-02-28T07:58:23;21.63;;;13.10;;
20411;SDS011;10365;52.578;8.138;2023-02-28T08:00:49;28.95;;;14.07;;
20411;SDS011;10365;52.578;8.138;2023-02-28T08:03:15;22.70;;;13.82;;
20411;SDS011;10365;52.578;8.138;2023-02-28T08:05:40;21.75;;;14.60;;
20411;SDS011;10365;52.578;8.138;2023-02-28T08:08:06;29.30;;;16.00;;
20411;SDS011;10365;52.578;8.138;2023-02-28T08:10:32;30.20;;;16.52;;
20411;SDS011;10365;52.578;8.138;2023-02-28T08:12:57;27.92;;;16.73;;
20411;SDS011;10365;52.578;8.138;2023-02-28T08:15:25;42.25;;;19.48;;
20411;SDS011;10365;52.578;8.138;2023-02-28T08:17:51;46.17;;;18.10;;
20411;SDS011;10365;52.578;8.138;2023-02-28T08:20:17;51.75;;;19.95;;
20411;SDS011;10365;52.578;8.138;2023-02-28T08:22:42;37.08;;;18.30;;
20411;SDS011;10365;52.578;8.138;2023-02-28T08:25:08;32.25;;;15.95;;
20411;SDS011;10365;52.578;8.138;2023-02-28T08:27:34;29.30;;;14.60;;
20411;SDS011;10365;52.578;8.138;2023-02-28T08:29:59;30.30;;;12.20;;
20411;SDS011;10365;52.578;8.138;2023-02-28T08:32:24;30.95;;;12.88;;
20411;SDS011;10365;52.578;8.138;2023-02-28T08:34:50;30.25;;;12.02;;
20411;SDS011;10365;52.578;8.138;2023-02-28T08:37:15;26.23;;;11.25;;
20411;SDS011;10365;52.578;8.138;2023-02-28T08:39:40;17.77;;;9.57;;
20411;SDS011;10365;52.578;8.138;2023-02-28T08:42:06;16.65;;;8.05;;
20411;SDS011;10365;52.578;8.138;2023-02-28T08:44:31;17.55;;;8.63;;
20411;SDS011;10365;52.578;8.138;2023-02-28T08:46:56;24.40;;;8.63;;
20411;SDS011;10365;52.578;8.138;2023-02-28T08:49:22;15.25;;;8.07;;
20411;SDS011;10365;52.578;8.138;2023-02-28T08:51:47;21.52;;;8.60;;
20411;SDS011;10365;52.578;8.138;2023-02-28T08:54:12;14.05;;;7.85;;
20411;SDS011;10365;52.578;8.138;2023-02-28T08:56:39;15.05;;;8.00;;
20411;SDS011;10365;52.578;8.138;2023-02-28T08:59:05;17.40;;;6.45;;
20411;SDS011;10365;52.578;8.138;2023-02-28T09:01:30;8.35;;;4.00;;
20411;SDS011;10365;52.578;8.138;2023-02-28T09:03:57;5.38;;;2.80;;
20411;SDS011;10365;52.578;8.138;2023-02-28T09:06:23;5.80;;;2.00;;
20411;SDS011;10365;52.578;8.138;2023-02-28T09:08:49;5.43;;;1.95;;
20411;SDS011;10365;52.578;8.138;2023-02-28T09:11:15;3.08;;;1.45;;
20411;SDS011;10365;52.578;8.138;2023-02-28T09:13:40;7.63;;;1.90;;
20411;SDS011;10365;52.578;8.138;2023-02-28T09:16:07;5.30;;;2.55;;
20411;SDS011;10365;52.578;8.138;2023-02-28T09:18:33;4.85;;;1.60;;
20411;SDS011;10365;52.578;8.138;2023-02-28T09:20:58;2.60;;;1.33;;
20411;SDS011;10365;52.578;8.138;2023-02-28T09:23:24;4.03;;;1.42;;
20411;SDS011;10365;52.578;8.138;2023-02-28T09:25:54;4.28;;;1.60;;
20411;SDS011;10365;52.578;8.138;2023-02-28T09:28:20;4.20;;;1.63;;
20411;SDS011;10365;52.578;8.138;2023-02-28T09:30:45;3.47;;;1.33;;
20411;SDS011;10365;52.578;8.138;2023-02-28T09:33:11;4.13;;;1.88;;
20411;SDS011;10365;52.578;8.138;2023-02-28T09:35:37;3.10;;;1.77;;
20411;SDS011;10365;52.578;8.138;2023-02-28T09:38:02;3.83;;;1.63;;
20411;SDS011;10365;52.578;8.138;2023-02-28T09:40:28;4.60;;;2.13;;
20411;SDS011;10365;52.578;8.138;2023-02-28T09:42:54;2.63;;;1.55;;
20411;SDS011;10365;52.578;8.138;2023-02-28T09:45:33;4.22;;;1.50;;
20411;SDS011;10365;52.578;8.138;2023-02-28T09:48:04;2.40;;;1.40;;
20411;SDS011;10365;52.578;8.138;2023-02-28T09:50:41;2.88;;;1.42;;
20411;SDS011;10365;52.578;8.138;2023-02-28T09:53:17;1.77;;;1.00;;
20411;SDS011;10365;52.578;8.138;2023-02-28T09:55:45;2.00;;;1.08;;
20411;SDS011;10365;52.578;8.138;2023-02-28T09:58:18;1.55;;;0.60;;
20411;SDS011;10365;52.578;8.138;2023-02-28T10:00:45;1.95;;;0.60;;
20411;SDS011;10365;52.578;8.138;2023-02-28T10:05:52;0.63;;;0.40;;
20411;SDS011;10365;52.578;8.138;2023-02-28T10:08:24;1.67;;;0.60;;
20411;SDS011;10365;52.578;8.138;2023-02-28T10:10:55;1.77;;;0.70;;
20411;SDS011;10365;52.578;8.138;2023-02-28T10:16:16;1.45;;;0.70;;
20411;SDS011;10365;52.578;8.138;2023-02-28T10:18:46;1.83;;;0.80;;
20411;SDS011;10365;52.578;8.138;2023-02-28T10:21:20;3.85;;;0.80;;
20411;SDS011;10365;52.578;8.138;2023-02-28T10:23:46;2.40;;;0.70;;
20411;SDS011;10365;52.578;8.138;2023-02-28T10:26:13;2.50;;;0.60;;
20411;SDS011;10365;52.578;8.138;2023-02-28T10:28:41;1.55;;;0.70;;
20411;SDS011;10365;52.578;8.138;2023-02-28T10:31:09;0.90;;;0.60;;
20411;SDS011;10365;52.578;8.138;2023-02-28T10:33:36;2.05;;;0.77;;
20411;SDS011;10365;52.578;8.138;2023-02-28T10:36:03;2.58;;;0.95;;
20411;SDS011;10365;52.578;8.138;2023-02-28T10:38:36;2.38;;;0.80;;
20411;SDS011;10365;52.578;8.138;2023-02-28T10:43:30;1.70;;;0.88;;
20411;SDS011;10365;52.578;8.138;2023-02-28T10:45:56;2.00;;;0.60;;
20411;SDS011;10365;52.578;8.138;2023-02-28T10:55:40;1.20;;;0.70;;
20411;SDS011;10365;52.578;8.138;2023-02-28T10:58:18;2.75;;;0.63;;
20411;SDS011;10365;52.578;8.138;2023-02-28T11:00:45;1.33;;;0.70;;
20411;SDS011;10365;52.578;8.138;2023-02-28T11:05:48;3.83;;;1.08;;
20411;SDS011;10365;52.578;8.138;2023-02-28T11:08:15;2.90;;;1.20;;
20411;SDS011;10365;52.578;8.138;2023-02-28T11:10:44;2.65;;;1.70;;
20411;SDS011;10365;52.578;8.138;2023-02-28T11:13:17;1.95;;;1.17;;
20411;SDS011;10365;52.578;8.138;2023-02-28T11:15:49;2.75;;;1.10;;
20411;SDS011;10365;52.578;8.138;2023-02-28T11:18:27;3.28;;;1.60;;
20411;SDS011;10365;52.578;8.138;2023-02-28T11:20:54;2.75;;;1.10;;
20411;SDS011;10365;52.578;8.138;2023-02-28T11:23:20;1.48;;;1.00;;
20411;SDS011;10365;52.578;8.138;2023-02-28T11:25:50;3.00;;;1.20;;
20411;SDS011;10365;52.578;8.138;2023-02-28T11:28:38;3.35;;;1.65;;
20411;SDS011;10365;52.578;8.138;2023-02-28T11:33:57;3.05;;;0.88;;
20411;SDS011;10365;52.578;8.138;2023-02-28T11:36:23;4.78;;;1.13;;
20411;SDS011;10365;52.578;8.138;2023-02-28T11:38:53;1.48;;;1.05;;
20411;SDS011;10365;52.578;8.138;2023-02-28T11:41:26;4.55;;;3.30;;
20411;SDS011;10365;52.578;8.138;2023-02-28T11:51:47;1.75;;;0.90;;
20411;SDS011;10365;52.578;8.138;2023-02-28T11:54:23;1.67;;;1.10;;
20411;SDS011;10365;52.578;8.138;2023-02-28T11:56:51;1.90;;;0.82;;
20411;SDS011;10365;52.578;8.138;2023-02-28T12:02:09;3.40;;;1.27;;
20411;SDS011;10365;52.578;8.138;2023-02-28T12:28:04;1.75;;;0.85;;
20411;SDS011;10365;52.578;8.138;2023-02-28T12:30:33;2.92;;;0.93;;
20411;SDS011;10365;52.578;8.138;2023-02-28T12:33:07;1.52;;;1.00;;
20411;SDS011;10365;52.578;8.138;2023-02-28T12:35:34;1.27;;;0.90;;
20411;SDS011;10365;52.578;8.138;2023-02-28T12:38:10;2.42;;;1.10;;
20411;SDS011;10365;52.578;8.138;2023-02-28T12:40:45;2.63;;;1.15;;
20411;SDS011;10365;52.578;8.138;2023-02-28T12:43:12;1.40;;;0.90;;
20411;SDS011;10365;52.578;8.138;2023-02-28T12:45:44;2.20;;;1.20;;
20411;SDS011;10365;52.578;8.138;2023-02-28T12:48:15;2.08;;;1.08;;
20411;SDS011;10365;52.578;8.138;2023-02-28T12:50:41;1.23;;;0.80;;
20411;SDS011;10365;52.578;8.138;2023-02-28T12:53:13;1.75;;;0.98;;
20411;SDS011;10365;52.578;8.138;2023-02-28T13:08:49;1.83;;;1.08;;
20411;SDS011;10365;52.578;8.138;2023-02-28T13:11:23;3.60;;;1.00;;
20411;SDS011;10365;52.578;8.138;2023-02-28T13:13:48;2.05;;;1.05;;
20411;SDS011;10365;52.578;8.138;2023-02-28T13:16:21;3.70;;;1.20;;
20411;SDS011;10365;52.578;8.138;2023-02-28T13:18:47;2.63;;;1.30;;
20411;SDS011;10365;52.578;8.138;2023-02-28T13:21:23;1.88;;;1.10;;
20411;SDS011;10365;52.578;8.138;2023-02-28T13:28:57;2.45;;;0.98;;
20411;SDS011;10365;52.578;8.138;2023-02-28T13:31:23;2.25;;;1.30;;
20411;SDS011;10365;52.578;8.138;2023-02-28T13:39:02;1.67;;;1.13;;
20411;SDS011;10365;52.578;8.138;2023-02-28T13:51:48;3.65;;;1.17;;
20411;SDS011;10365;52.578;8.138;2023-02-28T14:07:00;8.18;;;1.40;;
20411;SDS011;10365;52.578;8.138;2023-02-28T14:09:33;2.17;;;1.33;;
20411;SDS011;10365;52.578;8.138;2023-02-28T14:17:12;2.30;;;1.40;;
20411;SDS011;10365;52.578;8.138;2023-02-28T14:19:39;5.80;;;1.83;;
20411;SDS011;10365;52.578;8.138;2023-02-28T14:30:52;6.28;;;1.70;;
20411;SDS011;10365;52.578;8.138;2023-02-28T14:38:13;3.35;;;1.50;;
20411;SDS011;10365;52.578;8.138;2023-02-28T14:40:41;1.85;;;1.27;;
20411;SDS011;10365;52.578;8.138;2023-02-28T14:43:16;7.05;;;1.58;;
20411;SDS011;10365;52.578;8.138;2023-02-28T14:45:43;2.22;;;1.20;;
20411;SDS011;10365;52.578;8.138;2023-02-28T14:48:09;1.73;;;1.02;;
20411;SDS011;10365;52.578;8.138;2023-02-28T14:50:35;2.17;;;1.25;;
20411;SDS011;10365;52.578;8.138;2023-02-28T14:53:01;2.42;;;1.40;;
20411;SDS011;10365;52.578;8.138;2023-02-28T14:55:28;4.00;;;1.42;;
20411;SDS011;10365;52.578;8.138;2023-02-28T14:57:57;2.85;;;1.50;;
20411;SDS011;10365;52.578;8.138;2023-02-28T15:02:48;6.07;;;3.05;;
20411;SDS011;10365;52.578;8.138;2023-02-28T15:07:42;2.92;;;1.73;;
20411;SDS011;10365;52.578;8.138;2023-02-28T15:12:34;1.95;;;1.30;;
20411;SDS011;10365;52.578;8.138;2023-02-28T15:14:59;2.55;;;1.52;;
20411;SDS011;10365;52.578;8.138;2023-02-28T15:17:25;4.78;;;1.90;;
20411;SDS011;10365;52.578;8.138;2023-02-28T15:19:51;9.25;;;1.60;;
20411;SDS011;10365;52.578;8.138;2023-02-28T15:22:19;3.42;;;1.88;;
20411;SDS011;10365;52.578;8.138;2023-02-28T15:24:46;4.55;;;1.77;;
20411;SDS011;10365;52.578;8.138;2023-02-28T15:27:20;4.82;;;1.98;;
20411;SDS011;10365;52.578;8.138;2023-02-28T15:29:47;4.78;;;1.98;;
20411;SDS011;10365;52.578;8.138;2023-02-28T15:32:31;3.97;;;2.28;;
20411;SDS011;10365;52.578;8.138;2023-02-28T15:34:57;7.65;;;2.40;;
20411;SDS011;10365;52.578;8.138;2023-02-28T15:39:52;2.90;;;1.70;;
20411;SDS011;10365;52.578;8.138;2023-02-28T15:42:19;6.03;;;2.05;;
20411;SDS011;10365;52.578;8.138;2023-02-28T15:44:45;1.77;;;1.10;;
20411;SDS011;10365;52.578;8.138;2023-02-28T15:47:26;5.18;;;1.50;;
20411;SDS011;10365;52.578;8.138;2023-02-28T15:49:53;3.42;;;1.63;;
20411;SDS011;10365;52.578;8.138;2023-02-28T15:52:21;4.78;;;2.50;;
20411;SDS011;10365;52.578;8.138;2023-02-28T15:54:48;3.47;;;2.10;;
20411;SDS011;10365;52.578;8.138;2023-02-28T15:57:20;5.05;;;1.50;;
20411;SDS011;10365;52.578;8.138;2023-02-28T15:59:50;3.38;;;2.00;;
20411;SDS011;10365;52.578;8.138;2023-02-28T16:02:17;6.40;;;2.15;;
20411;SDS011;10365;52.578;8.138;2023-02-28T16:04:59;4.07;;;1.98;;
20411;SDS011;10365;52.578;8.138;2023-02-28T16:07:25;4.18;;;2.00;;
20411;SDS011;10365;52.578;8.138;2023-02-28T16:09:51;4.35;;;2.55;;
20411;SDS011;10365;52.578;8.138;2023-02-28T16:12:16;4.70;;;2.38;;
20411;SDS011;10365;52.578;8.138;2023-02-28T16:14:42;6.13;;;2.33;;
20411;SDS011;10365;52.578;8.138;2023-02-28T16:17:13;5.22;;;1.88;;
20411;SDS011;10365;52.578;8.138;2023-02-28T16:19:42;4.07;;;1.85;;
20411;SDS011;10365;52.578;8.138;2023-02-28T16:22:07;3.65;;;1.45;;
20411;SDS011;10365;52.578;8.138;2023-02-28T16:24:33;3.60;;;1.70;;
20411;SDS011;10365;52.578;8.138;2023-02-28T16:26:59;3.65;;;1.67;;
20411;SDS011;10365;52.578;8.138;2023-02-28T16:29:26;3.03;;;1.60;;
20411;SDS011;10365;52.578;8.138;2023-02-28T16:31:52;4.85;;;2.35;;
20411;SDS011;10365;52.578;8.138;2023-02-28T16:34:18;4.45;;;2.20;;
20411;SDS011;10365;52.578;8.138;2023-02-28T16:36:45;5.60;;;2.45;;
20411;SDS011;10365;52.578;8.138;2023-02-28T16:39:11;2.58;;;1.73;;
20411;SDS011;10365;52.578;8.138;2023-02-28T16:41:36;5.00;;;2.67;;
20411;SDS011;10365;52.578;8.138;2023-02-28T16:44:01;11.00;;;2.90;;
20411;SDS011;10365;52.578;8.138;2023-02-28T16:46:30;8.88;;;3.92;;
20411;SDS011;10365;52.578;8.138;2023-02-28T16:48:56;5.90;;;3.10;;
20411;SDS011;10365;52.578;8.138;2023-02-28T16:51:25;6.80;;;3.83;;
20411;SDS011;10365;52.578;8.138;2023-02-28T16:53:51;4.07;;;2.38;;
20411;SDS011;10365;52.578;8.138;2023-02-28T16:56:20;4.30;;;2.20;;
20411;SDS011;10365;52.578;8.138;2023-02-28T16:58:46;4.85;;;2.45;;
20411;SDS011;10365;52.578;8.138;2023-02-28T17:01:12;4.57;;;1.85;;
20411;SDS011;10365;52.578;8.138;2023-02-28T17:03:38;8.13;;;2.00;;
20411;SDS011;10365;52.578;8.138;2023-02-28T17:06:05;13.13;;;4.10;;
20411;SDS011;10365;52.578;8.138;2023-02-28T17:08:31;12.75;;;3.75;;
20411;SDS011;10365;52.578;8.138;2023-02-28T17:10:57;9.35;;;4.50;;
20411;SDS011;10365;52.578;8.138;2023-02-28T17:13:22;6.90;;;3.47;;
20411;SDS011;10365;52.578;8.138;2023-02-28T17:15:51;8.27;;;3.20;;
20411;SDS011;10365;52.578;8.138;2023-02-28T17:18:17;11.43;;;3.00;;
20411;SDS011;10365;52.578;8.138;2023-02-28T17:20:44;11.32;;;2.15;;
20411;SDS011;10365;52.578;8.138;2023-02-28T17:23:09;5.80;;;2.08;;
20411;SDS011;10365;52.578;8.138;2023-02-28T17:25:34;9.65;;;1.98;;
20411;SDS011;10365;52.578;8.138;2023-02-28T17:28:00;8.00;;;1.73;;